sensor_id;sensor_type;location;lat;lon;timestamp;P1;durP1;ratioP1;P2;durP2;ratioP2
9934;SDS011;5006;41.828;23.478;2024-03-08T00:01:02;4.93;;;4.45;;
9934;SDS011;5006;41.828;23.478;2024-03-08T00:02:09;4.95;;;4.55;;
9934;SDS011;5006;41.828;23.478;2024-03-08T00:03:17;5.63;;;4.47;;
9934;SDS011;5006;41.828;23.478;2024-03-08T00:04:24;4.60;;;4.20;;
9934;SDS011;5006;41.828;23.478;2024-03-08T00:05:30;4.60;;;4.20;;
9934;SDS011;5006;41.828;23.478;2024-03-08T00:06:36;5.00;;;4.50;;
9934;SDS011;5006;41.828;23.478;2024-03-08T00:07:42;5.13;;;4.63;;
9934;SDS011;5006;41.828;23.478;2024-03-08T00:08:49;4.80;;;4.40;;
9934;SDS011;5006;41.828;23.478;2024-03-08T00:09:56;5.20;;;4.70;;
9934;SDS011;5006;41.828;23.478;2024-03-08T00:11:02;4.88;;;4.47;;
9934;SDS011;5006;41.828;23.478;2024-03-08T00:12:10;5.30;;;4.72;;
9934;SDS011;5006;41.828;23.478;2024-03-08T00:13:15;5.63;;;5.00;;
9934;SDS011;5006;41.828;23.478;2024-03-08T00:14:22;4.93;;;4.53;;
9934;SDS011;5006;41.828;23.478;2024-03-08T00:15:27;5.30;;;4.70;;
9934;SDS011;5006;41.828;23.478;2024-03-08T00:16:33;5.15;;;4.65;;
9934;SDS011;5006;41.828;23.478;2024-03-08T00:17:39;4.90;;;4.50;;
9934;SDS011;5006;41.828;23.478;2024-03-08T00:18:46;5.32;;;4.82;;
9934;SDS011;5006;41.828;23.478;2024-03-08T00:19:52;5.40;;;4.90;;
9934;SDS011;5006;41.828;23.478;2024-03-08T00:20:58;5.00;;;4.50;;
9934;SDS011;5006;41.828;23.478;2024-03-08T00:22:03;4.90;;;4.40;;
9934;SDS011;5006;41.828;23.478;2024-03-08T00:23:10;4.68;;;4.25;;
9934;SDS011;5006;41.828;23.478;2024-03-08T00:24:16;4.93;;;4.30;;
9934;SDS011;5006;41.828;23.478;2024-03-08T00:25:23;4.20;;;3.83;;
9934;SDS011;5006;41.828;23.478;2024-03-08T00:26:29;3.92;;;3.53;;
9934;SDS011;5006;41.828;23.478;2024-03-08T00:27:36;4.47;;;4.07;;
9934;SDS011;5006;41.828;23.478;2024-03-08T00:28:44;4.05;;;3.65;;
9934;SDS011;5006;41.828;23.478;2024-03-08T00:29:50;4.70;;;4.30;;
9934;SDS011;5006;41.828;23.478;2024-03-08T00:30:56;4.88;;;4.40;;
9934;SDS011;5006;41.828;23.478;2024-03-08T00:32:02;4.20;;;3.78;;
9934;SDS011;5006;41.828;23.478;2024-03-08T00:33:08;4.40;;;4.00;;
9934;SDS011;5006;41.828;23.478;2024-03-08T00:34:14;4.70;;;4.30;;
9934;SDS011;5006;41.828;23.478;2024-03-08T00:35:21;4.40;;;4.00;;
9934;SDS011;5006;41.828;23.478;2024-03-08T00:36:28;4.82;;;4.15;;
9934;SDS011;5006;41.828;23.478;2024-03-08T00:37:35;4.20;;;3.80;;
9934;SDS011;5006;41.828;23.478;2024-03-08T00:38:41;4.25;;;3.80;;
9934;SDS011;5006;41.828;23.478;2024-03-08T00:39:48;4.45;;;4.05;;
9934;SDS011;5006;41.828;23.478;2024-03-08T00:40:54;5.13;;;3.88;;
9934;SDS011;5006;41.828;23.478;2024-03-08T00:42:02;4.35;;;3.95;;
9934;SDS011;5006;41.828;23.478;2024-03-08T00:43:09;5.25;;;4.00;;
9934;SDS011;5006;41.828;23.478;2024-03-08T00:44:16;4.40;;;4.00;;
9934;SDS011;5006;41.828;23.478;2024-03-08T00:45:21;4.22;;;3.83;;
9934;SDS011;5006;41.828;23.478;2024-03-08T00:46:29;4.18;;;3.78;;
9934;SDS011;5006;41.828;23.478;2024-03-08T00:47:35;4.47;;;4.07;;
9934;SDS011;5006;41.828;23.478;2024-03-08T00:48:41;4.72;;;3.90;;
9934;SDS011;5006;41.828;23.478;2024-03-08T00:49:48;4.10;;;3.70;;
9934;SDS011;5006;41.828;23.478;2024-03-08T00:50:54;4.18;;;3.80;;
9934;SDS011;5006;41.828;23.478;2024-03-08T00:52:00;5.40;;;3.70;;
9934;SDS011;5006;41.828;23.478;2024-03-08T00:53:07;4.10;;;3.70;;
9934;SDS011;5006;41.828;23.478;2024-03-08T00:54:12;4.60;;;4.10;;
9934;SDS011;5006;41.828;23.478;2024-03-08T00:55:21;4.18;;;3.78;;
9934;SDS011;5006;41.828;23.478;2024-03-08T00:56:26;3.97;;;3.58;;
9934;SDS011;5006;41.828;23.478;2024-03-08T00:57:33;4.13;;;3.72;;
9934;SDS011;5006;41.828;23.478;2024-03-08T00:58:41;4.03;;;3.58;;
9934;SDS011;5006;41.828;23.478;2024-03-08T00:59:48;3.65;;;3.35;;
9934;SDS011;5006;41.828;23.478;2024-03-08T01:00:54;3.88;;;3.42;;
9934;SDS011;5006;41.828;23.478;2024-03-08T01:02:02;4.70;;;3.70;;
9934;SDS011;5006;41.828;23.478;2024-03-08T01:03:08;4.15;;;3.65;;
9934;SDS011;5006;41.828;23.478;2024-03-08T01:04:15;4.60;;;4.20;;
9934;SDS011;5006;41.828;23.478;2024-03-08T01:05:22;4.45;;;4.05;;
9934;SDS011;5006;41.828;23.478;2024-03-08T01:06:30;4.68;;;4.28;;
9934;SDS011;5006;41.828;23.478;2024-03-08T01:07:35;4.40;;;4.00;;
9934;SDS011;5006;41.828;23.478;2024-03-08T01:08:43;5.05;;;4.50;;
9934;SDS011;5006;41.828;23.478;2024-03-08T01:09:48;6.15;;;5.05;;
9934;SDS011;5006;41.828;23.478;2024-03-08T01:10:54;5.90;;;5.00;;
9934;SDS011;5006;41.828;23.478;2024-03-08T01:12:00;5.25;;;4.75;;
9934;SDS011;5006;41.828;23.478;2024-03-08T01:13:05;5.68;;;5.10;;
9934;SDS011;5006;41.828;23.478;2024-03-08T01:14:13;6.05;;;5.00;;
9934;SDS011;5006;41.828;23.478;2024-03-08T01:15:19;6.03;;;5.43;;
9934;SDS011;5006;41.828;23.478;2024-03-08T01:16:26;6.22;;;5.63;;
9934;SDS011;5006;41.828;23.478;2024-03-08T01:17:32;6.32;;;5.72;;
9934;SDS011;5006;41.828;23.478;2024-03-08T01:18:39;5.25;;;4.50;;
9934;SDS011;5006;41.828;23.478;2024-03-08T01:19:45;4.60;;;4.18;;
9934;SDS011;5006;41.828;23.478;2024-03-08T01:20:50;4.53;;;4.10;;
9934;SDS011;5006;41.828;23.478;2024-03-08T01:21:56;5.13;;;4.43;;
9934;SDS011;5006;41.828;23.478;2024-03-08T01:23:02;5.07;;;4.63;;
9934;SDS011;5006;41.828;23.478;2024-03-08T01:24:08;5.55;;;4.35;;
9934;SDS011;5006;41.828;23.478;2024-03-08T01:25:14;4.35;;;3.95;;
9934;SDS011;5006;41.828;23.478;2024-03-08T01:26:20;3.80;;;3.50;;
9934;SDS011;5006;41.828;23.478;2024-03-08T01:27:25;4.45;;;3.90;;
9934;SDS011;5006;41.828;23.478;2024-03-08T01:28:31;4.75;;;4.00;;
9934;SDS011;5006;41.828;23.478;2024-03-08T01:29:40;4.25;;;3.85;;
9934;SDS011;5006;41.828;23.478;2024-03-08T01:30:46;3.95;;;3.33;;
9934;SDS011;5006;41.828;23.478;2024-03-08T01:31:55;4.18;;;3.78;;
9934;SDS011;5006;41.828;23.478;2024-03-08T01:33:00;4.22;;;3.67;;
9934;SDS011;5006;41.828;23.478;2024-03-08T01:34:07;4.38;;;3.63;;
9934;SDS011;5006;41.828;23.478;2024-03-08T01:35:11;4.03;;;3.58;;
9934;SDS011;5006;41.828;23.478;2024-03-08T01:36:18;3.63;;;3.33;;
9934;SDS011;5006;41.828;23.478;2024-03-08T01:37:23;4.35;;;3.50;;
9934;SDS011;5006;41.828;23.478;2024-03-08T01:38:30;5.03;;;3.53;;
9934;SDS011;5006;41.828;23.478;2024-03-08T01:39:35;4.10;;;3.70;;
9934;SDS011;5006;41.828;23.478;2024-03-08T01:40:43;3.78;;;3.47;;
9934;SDS011;5006;41.828;23.478;2024-03-08T01:41:49;3.92;;;3.53;;
9934;SDS011;5006;41.828;23.478;2024-03-08T01:42:56;5.00;;;3.70;;
9934;SDS011;5006;41.828;23.478;2024-03-08T01:44:01;4.00;;;3.60;;
9934;SDS011;5006;41.828;23.478;2024-03-08T01:45:09;3.45;;;3.15;;
9934;SDS011;5006;41.828;23.478;2024-03-08T01:46:15;4.10;;;3.70;;
9934;SDS011;5006;41.828;23.478;2024-03-08T01:47:27;4.40;;;4.00;;
9934;SDS011;5006;41.828;23.478;2024-03-08T01:48:33;4.00;;;3.60;;
9934;SDS011;5006;41.828;23.478;2024-03-08T01:49:40;4.03;;;3.63;;
9934;SDS011;5006;41.828;23.478;2024-03-08T01:50:46;4.97;;;3.90;;
9934;SDS011;5006;41.828;23.478;2024-03-08T01:51:53;4.13;;;3.72;;
9934;SDS011;5006;41.828;23.478;2024-03-08T01:53:01;4.10;;;3.70;;
9934;SDS011;5006;41.828;23.478;2024-03-08T01:54:08;4.63;;;3.92;;
9934;SDS011;5006;41.828;23.478;2024-03-08T01:55:15;5.00;;;3.95;;
9934;SDS011;5006;41.828;23.478;2024-03-08T01:56:23;4.20;;;3.72;;
9934;SDS011;5006;41.828;23.478;2024-03-08T01:57:30;4.10;;;3.67;;
9934;SDS011;5006;41.828;23.478;2024-03-08T01:58:38;4.15;;;3.42;;
9934;SDS011;5006;41.828;23.478;2024-03-08T01:59:44;4.55;;;3.97;;
9934;SDS011;5006;41.828;23.478;2024-03-08T02:00:52;3.78;;;3.47;;
9934;SDS011;5006;41.828;23.478;2024-03-08T02:01:59;4.03;;;3.70;;
9934;SDS011;5006;41.828;23.478;2024-03-08T02:03:08;5.22;;;3.80;;
9934;SDS011;5006;41.828;23.478;2024-03-08T02:04:13;4.35;;;3.95;;
9934;SDS011;5006;41.828;23.478;2024-03-08T02:05:20;4.10;;;3.70;;
9934;SDS011;5006;41.828;23.478;2024-03-08T02:06:25;4.43;;;3.53;;
9934;SDS011;5006;41.828;23.478;2024-03-08T02:07:31;3.90;;;3.50;;
9934;SDS011;5006;41.828;23.478;2024-03-08T02:08:37;3.85;;;3.55;;
9934;SDS011;5006;41.828;23.478;2024-03-08T02:09:43;4.63;;;3.63;;
9934;SDS011;5006;41.828;23.478;2024-03-08T02:10:49;4.15;;;3.75;;
9934;SDS011;5006;41.828;23.478;2024-03-08T02:11:56;4.15;;;3.50;;
9934;SDS011;5006;41.828;23.478;2024-03-08T02:13:03;4.15;;;3.75;;
9934;SDS011;5006;41.828;23.478;2024-03-08T02:14:10;4.05;;;3.53;;
9934;SDS011;5006;41.828;23.478;2024-03-08T02:15:16;3.97;;;3.42;;
9934;SDS011;5006;41.828;23.478;2024-03-08T02:16:24;3.65;;;3.35;;
9934;SDS011;5006;41.828;23.478;2024-03-08T02:17:30;3.97;;;3.60;;
9934;SDS011;5006;41.828;23.478;2024-03-08T02:18:37;3.75;;;3.35;;
9934;SDS011;5006;41.828;23.478;2024-03-08T02:19:44;4.57;;;4.05;;
9934;SDS011;5006;41.828;23.478;2024-03-08T02:20:52;3.95;;;3.60;;
9934;SDS011;5006;41.828;23.478;2024-03-08T02:21:59;3.90;;;3.50;;
9934;SDS011;5006;41.828;23.478;2024-03-08T02:23:09;4.00;;;3.50;;
9934;SDS011;5006;41.828;23.478;2024-03-08T02:24:13;3.60;;;3.30;;
9934;SDS011;5006;41.828;23.478;2024-03-08T02:25:21;4.05;;;3.28;;
9934;SDS011;5006;41.828;23.478;2024-03-08T02:26:26;3.80;;;3.40;;
9934;SDS011;5006;41.828;23.478;2024-03-08T02:27:32;3.67;;;3.33;;
9934;SDS011;5006;41.828;23.478;2024-03-08T02:28:38;4.00;;;3.67;;
9934;SDS011;5006;41.828;23.478;2024-03-08T02:29:48;3.95;;;3.55;;
9934;SDS011;5006;41.828;23.478;2024-03-08T02:30:54;3.72;;;3.42;;
9934;SDS011;5006;41.828;23.478;2024-03-08T02:32:02;3.65;;;3.35;;
9934;SDS011;5006;41.828;23.478;2024-03-08T02:33:08;5.25;;;4.00;;
9934;SDS011;5006;41.828;23.478;2024-03-08T02:34:15;3.92;;;3.63;;
9934;SDS011;5006;41.828;23.478;2024-03-08T02:35:21;5.55;;;3.85;;
9934;SDS011;5006;41.828;23.478;2024-03-08T02:36:29;6.40;;;5.80;;
9934;SDS011;5006;41.828;23.478;2024-03-08T02:37:38;6.40;;;5.30;;
9934;SDS011;5006;41.828;23.478;2024-03-08T02:38:44;6.28;;;5.65;;
9934;SDS011;5006;41.828;23.478;2024-03-08T02:39:50;11.07;;;6.00;;
9934;SDS011;5006;41.828;23.478;2024-03-08T02:40:56;6.35;;;5.70;;
9934;SDS011;5006;41.828;23.478;2024-03-08T02:42:03;6.88;;;6.18;;
9934;SDS011;5006;41.828;23.478;2024-03-08T02:43:09;6.75;;;5.90;;
9934;SDS011;5006;41.828;23.478;2024-03-08T02:44:16;6.28;;;5.68;;
9934;SDS011;5006;41.828;23.478;2024-03-08T02:45:21;6.80;;;6.10;;
9934;SDS011;5006;41.828;23.478;2024-03-08T02:46:28;7.15;;;6.38;;
9934;SDS011;5006;41.828;23.478;2024-03-08T02:47:35;6.75;;;6.05;;
9934;SDS011;5006;41.828;23.478;2024-03-08T02:48:42;6.70;;;6.00;;
9934;SDS011;5006;41.828;23.478;2024-03-08T02:49:47;7.00;;;6.38;;
9934;SDS011;5006;41.828;23.478;2024-03-08T02:50:55;6.75;;;6.10;;
9934;SDS011;5006;41.828;23.478;2024-03-08T02:52:02;6.97;;;6.28;;
9934;SDS011;5006;41.828;23.478;2024-03-08T02:53:10;7.03;;;6.32;;
9934;SDS011;5006;41.828;23.478;2024-03-08T02:54:16;7.00;;;6.30;;
9934;SDS011;5006;41.828;23.478;2024-03-08T02:55:24;7.00;;;6.30;;
9934;SDS011;5006;41.828;23.478;2024-03-08T02:56:31;6.65;;;6.03;;
9934;SDS011;5006;41.828;23.478;2024-03-08T02:57:39;7.35;;;6.40;;
9934;SDS011;5006;41.828;23.478;2024-03-08T02:58:45;6.63;;;6.03;;
9934;SDS011;5006;41.828;23.478;2024-03-08T02:59:53;7.55;;;6.43;;
9934;SDS011;5006;41.828;23.478;2024-03-08T03:00:59;7.47;;;6.78;;
9934;SDS011;5006;41.828;23.478;2024-03-08T03:02:06;7.70;;;6.90;;
9934;SDS011;5006;41.828;23.478;2024-03-08T03:03:11;7.00;;;6.30;;
9934;SDS011;5006;41.828;23.478;2024-03-08T03:04:18;7.40;;;6.60;;
9934;SDS011;5006;41.828;23.478;2024-03-08T03:05:24;7.38;;;6.68;;
9934;SDS011;5006;41.828;23.478;2024-03-08T03:06:31;6.95;;;6.25;;
9934;SDS011;5006;41.828;23.478;2024-03-08T03:07:39;6.65;;;5.97;;
9934;SDS011;5006;41.828;23.478;2024-03-08T03:08:46;7.00;;;6.30;;
9934;SDS011;5006;41.828;23.478;2024-03-08T03:09:52;6.65;;;6.05;;
9934;SDS011;5006;41.828;23.478;2024-03-08T03:10:59;7.18;;;6.20;;
9934;SDS011;5006;41.828;23.478;2024-03-08T03:12:05;7.68;;;6.65;;
9934;SDS011;5006;41.828;23.478;2024-03-08T03:13:13;7.82;;;6.95;;
9934;SDS011;5006;41.828;23.478;2024-03-08T03:14:20;8.70;;;7.72;;
9934;SDS011;5006;41.828;23.478;2024-03-08T03:15:27;8.00;;;7.22;;
9934;SDS011;5006;41.828;23.478;2024-03-08T03:16:32;9.35;;;8.10;;
9934;SDS011;5006;41.828;23.478;2024-03-08T03:17:39;8.57;;;7.68;;
9934;SDS011;5006;41.828;23.478;2024-03-08T03:18:45;8.80;;;7.90;;
9934;SDS011;5006;41.828;23.478;2024-03-08T03:19:52;8.98;;;7.80;;
9934;SDS011;5006;41.828;23.478;2024-03-08T03:20:58;8.55;;;7.38;;
9934;SDS011;5006;41.828;23.478;2024-03-08T03:22:04;9.20;;;7.72;;
9934;SDS011;5006;41.828;23.478;2024-03-08T03:23:11;8.82;;;7.53;;
9934;SDS011;5006;41.828;23.478;2024-03-08T03:24:19;10.05;;;8.93;;
9934;SDS011;5006;41.828;23.478;2024-03-08T03:25:26;10.38;;;8.63;;
9934;SDS011;5006;41.828;23.478;2024-03-08T03:26:37;8.50;;;7.70;;
9934;SDS011;5006;41.828;23.478;2024-03-08T03:27:44;8.50;;;7.70;;
9934;SDS011;5006;41.828;23.478;2024-03-08T03:28:51;8.82;;;7.13;;
9934;SDS011;5006;41.828;23.478;2024-03-08T03:29:56;8.50;;;7.32;;
9934;SDS011;5006;41.828;23.478;2024-03-08T03:31:03;7.63;;;6.85;;
9934;SDS011;5006;41.828;23.478;2024-03-08T03:32:09;7.78;;;6.97;;
9934;SDS011;5006;41.828;23.478;2024-03-08T03:33:15;9.02;;;7.75;;
9934;SDS011;5006;41.828;23.478;2024-03-08T03:34:22;7.88;;;7.07;;
9934;SDS011;5006;41.828;23.478;2024-03-08T03:35:29;7.75;;;6.95;;
9934;SDS011;5006;41.828;23.478;2024-03-08T03:36:35;7.10;;;6.38;;
9934;SDS011;5006;41.828;23.478;2024-03-08T03:37:43;7.88;;;6.47;;
9934;SDS011;5006;41.828;23.478;2024-03-08T03:38:57;6.78;;;6.07;;
9934;SDS011;5006;41.828;23.478;2024-03-08T03:40:15;7.85;;;6.40;;
9934;SDS011;5006;41.828;23.478;2024-03-08T03:41:23;7.35;;;5.95;;
9934;SDS011;5006;41.828;23.478;2024-03-08T03:42:30;6.93;;;6.18;;
9934;SDS011;5006;41.828;23.478;2024-03-08T03:43:36;7.32;;;6.63;;
9934;SDS011;5006;41.828;23.478;2024-03-08T03:44:44;6.90;;;6.20;;
9934;SDS011;5006;41.828;23.478;2024-03-08T03:45:50;6.70;;;6.10;;
9934;SDS011;5006;41.828;23.478;2024-03-08T03:46:57;7.00;;;6.28;;
9934;SDS011;5006;41.828;23.478;2024-03-08T03:48:02;9.10;;;6.68;;
9934;SDS011;5006;41.828;23.478;2024-03-08T03:49:09;9.35;;;7.68;;
9934;SDS011;5006;41.828;23.478;2024-03-08T03:50:15;7.78;;;6.97;;
9934;SDS011;5006;41.828;23.478;2024-03-08T03:51:24;8.90;;;7.90;;
9934;SDS011;5006;41.828;23.478;2024-03-08T03:52:30;8.60;;;7.80;;
9934;SDS011;5006;41.828;23.478;2024-03-08T03:53:37;7.18;;;6.45;;
9934;SDS011;5006;41.828;23.478;2024-03-08T03:54:45;7.80;;;6.88;;
9934;SDS011;5006;41.828;23.478;2024-03-08T03:55:51;8.60;;;6.97;;
9934;SDS011;5006;41.828;23.478;2024-03-08T03:56:56;8.20;;;7.22;;
9934;SDS011;5006;41.828;23.478;2024-03-08T03:58:02;8.20;;;7.35;;
9934;SDS011;5006;41.828;23.478;2024-03-08T03:59:08;8.10;;;7.22;;
9934;SDS011;5006;41.828;23.478;2024-03-08T04:00:15;7.00;;;6.30;;
9934;SDS011;5006;41.828;23.478;2024-03-08T04:01:21;7.45;;;6.70;;
9934;SDS011;5006;41.828;23.478;2024-03-08T04:02:28;6.78;;;6.07;;
9934;SDS011;5006;41.828;23.478;2024-03-08T04:03:34;7.38;;;6.68;;
9934;SDS011;5006;41.828;23.478;2024-03-08T04:04:40;7.07;;;6.38;;
9934;SDS011;5006;41.828;23.478;2024-03-08T04:05:46;7.38;;;6.03;;
9934;SDS011;5006;41.828;23.478;2024-03-08T04:06:53;7.13;;;5.90;;
9934;SDS011;5006;41.828;23.478;2024-03-08T04:07:59;6.78;;;6.18;;
9934;SDS011;5006;41.828;23.478;2024-03-08T04:09:06;6.60;;;6.00;;
9934;SDS011;5006;41.828;23.478;2024-03-08T04:10:12;7.07;;;6.35;;
9934;SDS011;5006;41.828;23.478;2024-03-08T04:11:19;6.78;;;6.20;;
9934;SDS011;5006;41.828;23.478;2024-03-08T04:12:25;7.90;;;7.18;;
9934;SDS011;5006;41.828;23.478;2024-03-08T04:13:33;16.80;;;13.93;;
9934;SDS011;5006;41.828;23.478;2024-03-08T04:14:40;14.85;;;12.95;;
9934;SDS011;5006;41.828;23.478;2024-03-08T04:15:48;10.45;;;9.35;;
9934;SDS011;5006;41.828;23.478;2024-03-08T04:16:53;6.78;;;6.07;;
9934;SDS011;5006;41.828;23.478;2024-03-08T04:17:59;6.63;;;5.97;;
9934;SDS011;5006;41.828;23.478;2024-03-08T04:19:05;6.18;;;5.32;;
9934;SDS011;5006;41.828;23.478;2024-03-08T04:20:13;5.97;;;5.40;;
9934;SDS011;5006;41.828;23.478;2024-03-08T04:21:19;7.07;;;5.57;;
9934;SDS011;5006;41.828;23.478;2024-03-08T04:22:26;6.13;;;5.53;;
9934;SDS011;5006;41.828;23.478;2024-03-08T04:23:33;5.88;;;5.38;;
9934;SDS011;5006;41.828;23.478;2024-03-08T04:24:40;6.38;;;5.78;;
9934;SDS011;5006;41.828;23.478;2024-03-08T04:25:47;6.25;;;5.65;;
9934;SDS011;5006;41.828;23.478;2024-03-08T04:26:54;5.85;;;5.35;;
9934;SDS011;5006;41.828;23.478;2024-03-08T04:27:59;6.10;;;5.50;;
9934;SDS011;5006;41.828;23.478;2024-03-08T04:29:04;6.80;;;6.05;;
9934;SDS011;5006;41.828;23.478;2024-03-08T04:30:10;7.72;;;6.13;;
9934;SDS011;5006;41.828;23.478;2024-03-08T04:31:17;6.50;;;5.90;;
9934;SDS011;5006;41.828;23.478;2024-03-08T04:32:22;6.95;;;6.10;;
9934;SDS011;5006;41.828;23.478;2024-03-08T04:33:28;6.68;;;6.07;;
9934;SDS011;5006;41.828;23.478;2024-03-08T04:34:33;6.47;;;5.88;;
9934;SDS011;5006;41.828;23.478;2024-03-08T04:35:39;6.22;;;5.63;;
9934;SDS011;5006;41.828;23.478;2024-03-08T04:36:45;6.30;;;5.70;;
9934;SDS011;5006;41.828;23.478;2024-03-08T04:37:52;5.90;;;5.32;;
9934;SDS011;5006;41.828;23.478;2024-03-08T04:38:58;6.88;;;5.90;;
9934;SDS011;5006;41.828;23.478;2024-03-08T04:40:04;6.30;;;5.70;;
9934;SDS011;5006;41.828;23.478;2024-03-08T04:41:13;5.45;;;4.95;;
9934;SDS011;5006;41.828;23.478;2024-03-08T04:42:19;6.35;;;5.75;;
9934;SDS011;5006;41.828;23.478;2024-03-08T04:43:26;6.68;;;6.05;;
9934;SDS011;5006;41.828;23.478;2024-03-08T04:44:35;6.75;;;6.15;;
9934;SDS011;5006;41.828;23.478;2024-03-08T04:45:42;6.25;;;5.65;;
9934;SDS011;5006;41.828;23.478;2024-03-08T04:46:48;6.35;;;5.75;;
9934;SDS011;5006;41.828;23.478;2024-03-08T04:47:54;6.07;;;5.45;;
9934;SDS011;5006;41.828;23.478;2024-03-08T04:48:59;5.93;;;5.32;;
9934;SDS011;5006;41.828;23.478;2024-03-08T04:50:05;5.68;;;5.18;;
9934;SDS011;5006;41.828;23.478;2024-03-08T04:51:11;5.47;;;4.93;;
9934;SDS011;5006;41.828;23.478;2024-03-08T04:52:18;6.70;;;3.63;;
9934;SDS011;5006;41.828;23.478;2024-03-08T04:53:23;4.97;;;4.40;;
9934;SDS011;5006;41.828;23.478;2024-03-08T04:54:29;5.90;;;5.40;;
9934;SDS011;5006;41.828;23.478;2024-03-08T04:55:34;4.88;;;4.38;;
9934;SDS011;5006;41.828;23.478;2024-03-08T04:56:43;5.40;;;4.90;;
9934;SDS011;5006;41.828;23.478;2024-03-08T04:57:48;5.57;;;4.82;;
9934;SDS011;5006;41.828;23.478;2024-03-08T04:58:55;5.45;;;4.85;;
9934;SDS011;5006;41.828;23.478;2024-03-08T05:00:01;4.90;;;4.50;;
9934;SDS011;5006;41.828;23.478;2024-03-08T05:01:09;5.50;;;5.00;;
9934;SDS011;5006;41.828;23.478;2024-03-08T05:02:14;5.57;;;4.63;;
9934;SDS011;5006;41.828;23.478;2024-03-08T05:03:22;4.82;;;4.32;;
9934;SDS011;5006;41.828;23.478;2024-03-08T05:04:30;4.45;;;4.05;;
9934;SDS011;5006;41.828;23.478;2024-03-08T05:05:36;4.15;;;3.78;;
9934;SDS011;5006;41.828;23.478;2024-03-08T05:06:42;5.55;;;4.20;;
9934;SDS011;5006;41.828;23.478;2024-03-08T05:07:48;4.53;;;3.90;;
9934;SDS011;5006;41.828;23.478;2024-03-08T05:08:53;4.70;;;4.18;;
9934;SDS011;5006;41.828;23.478;2024-03-08T05:10:00;4.28;;;3.90;;
9934;SDS011;5006;41.828;23.478;2024-03-08T05:11:07;4.18;;;3.80;;
9934;SDS011;5006;41.828;23.478;2024-03-08T05:12:15;4.45;;;3.67;;
9934;SDS011;5006;41.828;23.478;2024-03-08T05:13:21;4.50;;;3.90;;
9934;SDS011;5006;41.828;23.478;2024-03-08T05:14:28;4.43;;;3.75;;
9934;SDS011;5006;41.828;23.478;2024-03-08T05:15:34;4.30;;;3.10;;
9934;SDS011;5006;41.828;23.478;2024-03-08T05:16:41;3.28;;;2.97;;
9934;SDS011;5006;41.828;23.478;2024-03-08T05:17:47;3.00;;;2.65;;
9934;SDS011;5006;41.828;23.478;2024-03-08T05:18:53;3.25;;;2.95;;
9934;SDS011;5006;41.828;23.478;2024-03-08T05:19:58;3.35;;;3.00;;
9934;SDS011;5006;41.828;23.478;2024-03-08T05:21:04;3.08;;;2.78;;
9934;SDS011;5006;41.828;23.478;2024-03-08T05:22:10;2.63;;;2.35;;
9934;SDS011;5006;41.828;23.478;2024-03-08T05:23:17;2.80;;;2.20;;
9934;SDS011;5006;41.828;23.478;2024-03-08T05:24:24;2.47;;;2.20;;
9934;SDS011;5006;41.828;23.478;2024-03-08T05:25:30;2.72;;;2.30;;
9934;SDS011;5006;41.828;23.478;2024-03-08T05:26:36;2.80;;;2.50;;
9934;SDS011;5006;41.828;23.478;2024-03-08T05:27:44;2.97;;;2.60;;
9934;SDS011;5006;41.828;23.478;2024-03-08T05:28:52;2.70;;;2.50;;
9934;SDS011;5006;41.828;23.478;2024-03-08T05:29:59;3.42;;;2.72;;
9934;SDS011;5006;41.828;23.478;2024-03-08T05:31:05;2.20;;;2.00;;
9934;SDS011;5006;41.828;23.478;2024-03-08T05:32:11;3.15;;;2.13;;
9934;SDS011;5006;41.828;23.478;2024-03-08T05:33:17;2.75;;;2.03;;
9934;SDS011;5006;41.828;23.478;2024-03-08T05:34:24;1.95;;;1.80;;
9934;SDS011;5006;41.828;23.478;2024-03-08T05:35:31;2.45;;;2.10;;
9934;SDS011;5006;41.828;23.478;2024-03-08T05:36:38;2.90;;;1.60;;
9934;SDS011;5006;41.828;23.478;2024-03-08T05:37:43;3.20;;;1.60;;
9934;SDS011;5006;41.828;23.478;2024-03-08T05:38:50;1.95;;;1.50;;
9934;SDS011;5006;41.828;23.478;2024-03-08T05:39:56;1.80;;;1.60;;
9934;SDS011;5006;41.828;23.478;2024-03-08T05:41:03;2.08;;;1.63;;
9934;SDS011;5006;41.828;23.478;2024-03-08T05:42:12;1.67;;;1.55;;
9934;SDS011;5006;41.828;23.478;2024-03-08T05:43:20;2.00;;;1.33;;
9934;SDS011;5006;41.828;23.478;2024-03-08T05:45:12;2.00;;;1.40;;
9934;SDS011;5006;41.828;23.478;2024-03-08T05:46:25;1.98;;;1.67;;
9934;SDS011;5006;41.828;23.478;2024-03-08T05:47:43;1.80;;;1.42;;
9934;SDS011;5006;41.828;23.478;2024-03-08T05:49:18;1.70;;;1.40;;
9934;SDS011;5006;41.828;23.478;2024-03-08T05:50:23;1.75;;;1.60;;
9934;SDS011;5006;41.828;23.478;2024-03-08T05:51:30;1.70;;;1.60;;
9934;SDS011;5006;41.828;23.478;2024-03-08T05:52:36;2.75;;;1.70;;
9934;SDS011;5006;41.828;23.478;2024-03-08T05:53:44;1.77;;;1.60;;
9934;SDS011;5006;41.828;23.478;2024-03-08T05:54:49;1.90;;;1.63;;
9934;SDS011;5006;41.828;23.478;2024-03-08T05:56:02;1.80;;;1.70;;
9934;SDS011;5006;41.828;23.478;2024-03-08T05:57:08;2.10;;;1.90;;
9934;SDS011;5006;41.828;23.478;2024-03-08T05:58:15;2.05;;;1.45;;
9934;SDS011;5006;41.828;23.478;2024-03-08T05:59:22;2.42;;;2.22;;
9934;SDS011;5006;41.828;23.478;2024-03-08T06:00:29;2.85;;;2.55;;
9934;SDS011;5006;41.828;23.478;2024-03-08T06:01:36;3.80;;;3.05;;
9934;SDS011;5006;41.828;23.478;2024-03-08T06:02:45;2.75;;;2.05;;
9934;SDS011;5006;41.828;23.478;2024-03-08T06:03:51;2.58;;;1.92;;
9934;SDS011;5006;41.828;23.478;2024-03-08T06:05:00;2.55;;;2.10;;
9934;SDS011;5006;41.828;23.478;2024-03-08T06:06:07;2.35;;;1.48;;
9934;SDS011;5006;41.828;23.478;2024-03-08T06:07:14;2.85;;;2.10;;
9934;SDS011;5006;41.828;23.478;2024-03-08T06:08:23;2.20;;;1.35;;
9934;SDS011;5006;41.828;23.478;2024-03-08T06:09:45;3.28;;;1.80;;
9934;SDS011;5006;41.828;23.478;2024-03-08T06:10:53;1.85;;;1.50;;
9934;SDS011;5006;41.828;23.478;2024-03-08T06:12:01;3.30;;;1.83;;
9934;SDS011;5006;41.828;23.478;2024-03-08T06:13:09;2.40;;;1.75;;
9934;SDS011;5006;41.828;23.478;2024-03-08T06:14:17;1.73;;;1.63;;
9934;SDS011;5006;41.828;23.478;2024-03-08T06:15:30;1.75;;;1.50;;
9934;SDS011;5006;41.828;23.478;2024-03-08T06:16:37;2.28;;;1.63;;
9934;SDS011;5006;41.828;23.478;2024-03-08T06:17:44;2.55;;;1.98;;
9934;SDS011;5006;41.828;23.478;2024-03-08T06:18:58;1.80;;;1.55;;
9934;SDS011;5006;41.828;23.478;2024-03-08T06:20:03;1.83;;;1.67;;
9934;SDS011;5006;41.828;23.478;2024-03-08T06:21:14;3.15;;;1.60;;
9934;SDS011;5006;41.828;23.478;2024-03-08T06:22:21;2.00;;;1.80;;
9934;SDS011;5006;41.828;23.478;2024-03-08T06:23:34;3.00;;;1.95;;
9934;SDS011;5006;41.828;23.478;2024-03-08T06:25:10;2.10;;;1.90;;
9934;SDS011;5006;41.828;23.478;2024-03-08T06:26:22;3.47;;;3.17;;
9934;SDS011;5006;41.828;23.478;2024-03-08T06:27:29;5.03;;;3.55;;
9934;SDS011;5006;41.828;23.478;2024-03-08T06:28:37;3.83;;;2.53;;
9934;SDS011;5006;41.828;23.478;2024-03-08T06:29:43;2.45;;;2.10;;
9934;SDS011;5006;41.828;23.478;2024-03-08T06:30:50;8.35;;;7.38;;
9934;SDS011;5006;41.828;23.478;2024-03-08T06:31:56;6.15;;;5.55;;
9934;SDS011;5006;41.828;23.478;2024-03-08T06:33:03;4.82;;;4.22;;
9934;SDS011;5006;41.828;23.478;2024-03-08T06:34:09;5.28;;;4.78;;
9934;SDS011;5006;41.828;23.478;2024-03-08T06:35:16;6.13;;;5.38;;
9934;SDS011;5006;41.828;23.478;2024-03-08T06:36:22;3.35;;;2.85;;
9934;SDS011;5006;41.828;23.478;2024-03-08T06:37:29;5.00;;;3.10;;
9934;SDS011;5006;41.828;23.478;2024-03-08T06:38:36;3.05;;;2.65;;
9934;SDS011;5006;41.828;23.478;2024-03-08T06:39:47;2.95;;;2.10;;
9934;SDS011;5006;41.828;23.478;2024-03-08T06:40:53;2.70;;;2.40;;
9934;SDS011;5006;41.828;23.478;2024-03-08T06:41:59;4.43;;;3.83;;
9934;SDS011;5006;41.828;23.478;2024-03-08T06:43:05;3.47;;;2.95;;
9934;SDS011;5006;41.828;23.478;2024-03-08T06:44:12;4.05;;;3.53;;
9934;SDS011;5006;41.828;23.478;2024-03-08T06:45:18;4.00;;;3.67;;
9934;SDS011;5006;41.828;23.478;2024-03-08T06:46:27;4.28;;;3.88;;
9934;SDS011;5006;41.828;23.478;2024-03-08T06:47:33;4.47;;;3.85;;
9934;SDS011;5006;41.828;23.478;2024-03-08T06:48:40;4.13;;;3.70;;
9934;SDS011;5006;41.828;23.478;2024-03-08T06:49:45;5.57;;;4.03;;
9934;SDS011;5006;41.828;23.478;2024-03-08T06:50:52;3.72;;;3.35;;